Ridge Farm, Illinois
Current Conditions -  °F | °C
As of 6:15 PM on Friday 28 Nov 2014 (Local Time) from KPRG Reporting Station
Clear Clear  
Wind Chill: 27°   Ceiling: Unl
Heat Index: 36°   Visibility: 10mi
Dew Point: 30°   Wind: 14mph
Humidity: 80%   Direction: 160°SSE
Pressure: 30.04"   Gusts: NA
Location:  39.9°N, 87.65°W
Report Text: KPRG 290015Z AUTO 16012KT 10SM CLR 02/M01 A3004 RMK AO2 T00211010
Loading
Personal Weather Stations






























Interactive Weather Map New forecast layout! Learn more

10-Day Weather Forecast

Advertisements
Track Severe Weather on mobile